sensor_id;sensor_type;location;lat;lon;timestamp;pressure;altitude;pressure_sealevel;temperature;humidity
50592;BME280;36548;50.506;30.834;2023-05-03T00:00:31;100693.89;;;12.67;41.29
50592;BME280;36548;50.506;30.834;2023-05-03T00:01:46;100691.05;;;12.83;41.57
50592;BME280;36548;50.506;30.834;2023-05-03T00:02:56;100690.59;;;12.76;41.55
50592;BME280;36548;50.506;30.834;2023-05-03T00:04:05;100699.64;;;12.75;41.58
50592;BME280;36548;50.506;30.834;2023-05-03T00:05:15;100692.44;;;12.76;41.67
50592;BME280;36548;50.506;30.834;2023-05-03T00:06:25;100703.00;;;12.79;41.63
50592;BME280;36548;50.506;30.834;2023-05-03T00:07:43;100705.84;;;12.90;41.75
50592;BME280;36548;50.506;30.834;2023-05-03T00:08:53;100696.66;;;12.80;41.83
50592;BME280;36548;50.506;30.834;2023-05-03T00:10:03;100694.81;;;12.81;41.77
50592;BME280;36548;50.506;30.834;2023-05-03T00:11:20;100695.84;;;12.92;41.68
50592;BME280;36548;50.506;30.834;2023-05-03T00:12:29;100694.81;;;12.81;41.63
50592;BME280;36548;50.506;30.834;2023-05-03T00:13:39;100701.05;;;12.81;41.79
50592;BME280;36548;50.506;30.834;2023-05-03T00:14:51;100699.98;;;12.84;41.71
50592;BME280;36548;50.506;30.834;2023-05-03T00:16:09;100688.60;;;12.93;41.81
50592;BME280;36548;50.506;30.834;2023-05-03T00:17:19;100702.05;;;12.80;41.92
50592;BME280;36548;50.506;30.834;2023-05-03T00:18:35;100691.52;;;12.90;42.12
50592;BME280;36548;50.506;30.834;2023-05-03T00:19:44;100701.83;;;12.83;42.13
50592;BME280;36548;50.506;30.834;2023-05-03T00:21:00;100690.23;;;12.95;42.28
50592;BME280;36548;50.506;30.834;2023-05-03T00:22:09;100699.88;;;12.85;42.26
50592;BME280;36548;50.506;30.834;2023-05-03T00:23:26;100690.12;;;12.97;42.29
50592;BME280;36548;50.506;30.834;2023-05-03T00:24:36;100697.08;;;12.87;42.28
50592;BME280;36548;50.506;30.834;2023-05-03T00:25:55;100695.38;;;12.86;42.46
50592;BME280;36548;50.506;30.834;2023-05-03T00:27:12;100686.58;;;12.96;42.44
50592;BME280;36548;50.506;30.834;2023-05-03T00:28:20;100694.49;;;12.85;42.49
50592;BME280;36548;50.506;30.834;2023-05-03T00:29:36;100690.98;;;12.98;42.50
50592;BME280;36548;50.506;30.834;2023-05-03T00:30:46;100693.43;;;12.88;42.43
50592;BME280;36548;50.506;30.834;2023-05-03T00:32:21;100691.08;;;12.96;42.21
50592;BME280;36548;50.506;30.834;2023-05-03T00:33:31;100694.49;;;12.85;42.26
50592;BME280;36548;50.506;30.834;2023-05-03T00:34:41;100694.39;;;12.87;42.39
50592;BME280;36548;50.506;30.834;2023-05-03T00:35:51;100689.67;;;12.90;42.37
50592;BME280;36548;50.506;30.834;2023-05-03T00:36:59;100688.71;;;12.91;42.27
50592;BME280;36548;50.506;30.834;2023-05-03T00:38:15;100685.30;;;13.02;42.31
50592;BME280;36548;50.506;30.834;2023-05-03T00:39:28;100694.95;;;12.92;42.26
50592;BME280;36548;50.506;30.834;2023-05-03T00:40:52;100680.09;;;12.99;42.40
50592;BME280;36548;50.506;30.834;2023-05-03T00:42:01;100690.84;;;12.86;42.58
50592;BME280;36548;50.506;30.834;2023-05-03T00:43:13;100688.05;;;12.88;42.61
50592;BME280;36548;50.506;30.834;2023-05-03T00:44:23;100682.66;;;12.88;42.62
50592;BME280;36548;50.506;30.834;2023-05-03T00:45:38;100685.91;;;12.93;42.60
50592;BME280;36548;50.506;30.834;2023-05-03T00:46:49;100679.32;;;12.84;42.74
50592;BME280;36548;50.506;30.834;2023-05-03T00:48:04;100680.41;;;12.94;42.66
50592;BME280;36548;50.506;30.834;2023-05-03T00:49:14;100682.97;;;12.83;42.68
50592;BME280;36548;50.506;30.834;2023-05-03T00:50:30;100680.63;;;12.91;42.41
50592;BME280;36548;50.506;30.834;2023-05-03T00:51:40;100682.13;;;12.83;42.42
50592;BME280;36548;50.506;30.834;2023-05-03T00:52:57;100675.23;;;12.91;42.50
50592;BME280;36548;50.506;30.834;2023-05-03T00:54:08;100676.91;;;12.79;42.49
50592;BME280;36548;50.506;30.834;2023-05-03T00:55:18;100676.17;;;12.77;42.47
50592;BME280;36548;50.506;30.834;2023-05-03T00:56:34;100671.34;;;12.83;42.47
50592;BME280;36548;50.506;30.834;2023-05-03T00:57:46;100675.71;;;12.71;42.40
50592;BME280;36548;50.506;30.834;2023-05-03T00:58:58;100677.84;;;12.66;42.51
50592;BME280;36548;50.506;30.834;2023-05-03T01:00:10;100676.42;;;12.60;42.83
50592;BME280;36548;50.506;30.834;2023-05-03T01:01:28;100677.45;;;12.72;42.73
50592;BME280;36548;50.506;30.834;2023-05-03T01:02:38;100676.13;;;12.65;42.65
50592;BME280;36548;50.506;30.834;2023-05-03T01:03:48;100677.66;;;12.69;42.54
50592;BME280;36548;50.506;30.834;2023-05-03T01:05:05;100680.17;;;12.85;42.45
50592;BME280;36548;50.506;30.834;2023-05-03T01:08:04;100674.06;;;12.95;42.28
50592;BME280;36548;50.506;30.834;2023-05-03T01:10:47;100674.30;;;13.05;42.14
50592;BME280;36548;50.506;30.834;2023-05-03T01:12:15;100680.41;;;12.94;42.11
50592;BME280;36548;50.506;30.834;2023-05-03T01:18:10;100669.99;;;13.16;42.32
50592;BME280;36548;50.506;30.834;2023-05-03T01:20:50;100665.59;;;13.15;42.35
50592;BME280;36548;50.506;30.834;2023-05-03T01:24:12;100673.00;;;12.98;42.51
50592;BME280;36548;50.506;30.834;2023-05-03T01:25:27;100661.22;;;12.99;43.33
50592;BME280;36548;50.506;30.834;2023-05-03T01:26:37;100671.98;;;12.86;43.59
50592;BME280;36548;50.506;30.834;2023-05-03T01:27:53;100663.17;;;12.97;43.81
50592;BME280;36548;50.506;30.834;2023-05-03T01:29:02;100671.98;;;12.86;43.88
50592;BME280;36548;50.506;30.834;2023-05-03T01:30:13;100663.90;;;12.86;44.07
50592;BME280;36548;50.506;30.834;2023-05-03T01:31:49;100665.64;;;12.87;44.17
50592;BME280;36548;50.506;30.834;2023-05-03T01:33:25;100656.27;;;12.93;44.39
50592;BME280;36548;50.506;30.834;2023-05-03T01:36:02;100652.38;;;12.84;44.65
50592;BME280;36548;50.506;30.834;2023-05-03T01:37:13;100663.30;;;12.68;44.69
50592;BME280;36548;50.506;30.834;2023-05-03T01:38:22;100659.09;;;12.64;44.94
50592;BME280;36548;50.506;30.834;2023-05-03T01:39:50;100662.00;;;12.61;45.15
50592;BME280;36548;50.506;30.834;2023-05-03T01:41:11;100655.90;;;12.72;45.09
50592;BME280;36548;50.506;30.834;2023-05-03T01:42:23;100653.91;;;12.61;45.13
50592;BME280;36548;50.506;30.834;2023-05-03T01:43:33;100653.06;;;12.60;44.92
50592;BME280;36548;50.506;30.834;2023-05-03T01:44:44;100653.91;;;12.61;44.77
50592;BME280;36548;50.506;30.834;2023-05-03T01:45:57;100654.77;;;12.61;44.69
50592;BME280;36548;50.506;30.834;2023-05-03T01:47:07;100659.98;;;12.65;44.55
50592;BME280;36548;50.506;30.834;2023-05-03T01:48:24;100643.84;;;12.77;44.52
50592;BME280;36548;50.506;30.834;2023-05-03T01:49:34;100652.42;;;12.70;44.37
50592;BME280;36548;50.506;30.834;2023-05-03T01:50:44;100649.95;;;12.67;44.30
50592;BME280;36548;50.506;30.834;2023-05-03T01:52:00;100638.45;;;12.77;44.31
50592;BME280;36548;50.506;30.834;2023-05-03T01:53:10;100644.56;;;12.67;44.37
50592;BME280;36548;50.506;30.834;2023-05-03T01:54:19;100647.14;;;12.68;44.32
50592;BME280;36548;50.506;30.834;2023-05-03T01:55:30;100645.41;;;12.67;44.39
50592;BME280;36548;50.506;30.834;2023-05-03T01:56:39;100642.30;;;12.60;44.58
50592;BME280;36548;50.506;30.834;2023-05-03T01:57:49;100645.94;;;12.59;44.68
50592;BME280;36548;50.506;30.834;2023-05-03T01:59:04;100634.28;;;12.59;44.83
50592;BME280;36548;50.506;30.834;2023-05-03T02:00:14;100645.34;;;12.41;45.05
50592;BME280;36548;50.506;30.834;2023-05-03T02:01:30;100638.47;;;12.50;45.35
50592;BME280;36548;50.506;30.834;2023-05-03T02:02:39;100647.07;;;12.42;45.29
50592;BME280;36548;50.506;30.834;2023-05-03T02:03:55;100643.36;;;12.58;45.21
50592;BME280;36548;50.506;30.834;2023-05-03T02:05:05;100647.07;;;12.42;45.09
50592;BME280;36548;50.506;30.834;2023-05-03T02:06:14;100641.12;;;12.37;45.28
50592;BME280;36548;50.506;30.834;2023-05-03T02:07:25;100648.23;;;12.38;45.30
50592;BME280;36548;50.506;30.834;2023-05-03T02:08:35;100647.14;;;12.41;45.31
50592;BME280;36548;50.506;30.834;2023-05-03T02:09:50;100640.09;;;12.53;45.24
50592;BME280;36548;50.506;30.834;2023-05-03T02:11:00;100638.22;;;12.40;45.22
50592;BME280;36548;50.506;30.834;2023-05-03T02:12:15;100648.28;;;12.51;45.51
50592;BME280;36548;50.506;30.834;2023-05-03T02:13:24;100650.83;;;12.40;45.70
50592;BME280;36548;50.506;30.834;2023-05-03T02:14:40;100645.69;;;12.50;45.77
50592;BME280;36548;50.506;30.834;2023-05-03T02:15:50;100640.23;;;12.37;45.89
50592;BME280;36548;50.506;30.834;2023-05-03T02:17:00;100644.77;;;12.36;45.95
50592;BME280;36548;50.506;30.834;2023-05-03T02:18:10;100654.89;;;12.33;46.02
50592;BME280;36548;50.506;30.834;2023-05-03T02:19:26;100647.07;;;12.42;46.34
50592;BME280;36548;50.506;30.834;2023-05-03T02:20:36;100647.77;;;12.32;46.17
50592;BME280;36548;50.506;30.834;2023-05-03T02:21:47;100656.80;;;12.31;46.14
50592;BME280;36548;50.506;30.834;2023-05-03T02:22:57;100653.36;;;12.28;46.25
50592;BME280;36548;50.506;30.834;2023-05-03T02:24:07;100656.23;;;12.25;46.29
50592;BME280;36548;50.506;30.834;2023-05-03T02:25:23;100649.30;;;12.36;46.48
50592;BME280;36548;50.506;30.834;2023-05-03T02:26:33;100660.77;;;12.25;46.40
50592;BME280;36548;50.506;30.834;2023-05-03T02:27:49;100655.64;;;12.35;46.48
50592;BME280;36548;50.506;30.834;2023-05-03T02:28:58;100654.59;;;12.23;46.27
50592;BME280;36548;50.506;30.834;2023-05-03T02:30:09;100659.44;;;12.18;46.05
50592;BME280;36548;50.506;30.834;2023-05-03T02:31:25;100652.69;;;12.25;46.01
50592;BME280;36548;50.506;30.834;2023-05-03T02:32:37;100663.08;;;12.17;46.06
50592;BME280;36548;50.506;30.834;2023-05-03T02:33:53;100651.52;;;12.29;46.14
50592;BME280;36548;50.506;30.834;2023-05-03T02:35:04;100656.95;;;12.15;46.04
50592;BME280;36548;50.506;30.834;2023-05-03T02:36:20;100656.12;;;12.27;46.16
50592;BME280;36548;50.506;30.834;2023-05-03T02:37:30;100648.57;;;12.19;46.08
50592;BME280;36548;50.506;30.834;2023-05-03T02:38:46;100652.20;;;12.33;45.83
50592;BME280;36548;50.506;30.834;2023-05-03T02:39:56;100651.16;;;12.21;45.73
50592;BME280;36548;50.506;30.834;2023-05-03T02:41:13;100652.73;;;12.38;45.98
50592;BME280;36548;50.506;30.834;2023-05-03T02:42:22;100661.33;;;12.30;45.73
50592;BME280;36548;50.506;30.834;2023-05-03T02:43:38;100654.27;;;12.42;45.71
50592;BME280;36548;50.506;30.834;2023-05-03T02:44:47;100655.27;;;12.26;45.69
50592;BME280;36548;50.506;30.834;2023-05-03T02:45:57;100655.27;;;12.26;45.75
50592;BME280;36548;50.506;30.834;2023-05-03T02:47:08;100658.81;;;12.27;45.91
50592;BME280;36548;50.506;30.834;2023-05-03T02:48:24;100652.27;;;12.31;46.19
50592;BME280;36548;50.506;30.834;2023-05-03T02:49:34;100658.76;;;12.14;46.22
50592;BME280;36548;50.506;30.834;2023-05-03T02:50:44;100656.64;;;12.19;46.20
50592;BME280;36548;50.506;30.834;2023-05-03T02:52:00;100649.41;;;12.34;46.14
50592;BME280;36548;50.506;30.834;2023-05-03T02:53:11;100656.91;;;12.29;46.01
50592;BME280;36548;50.506;30.834;2023-05-03T02:54:20;100652.95;;;12.35;45.96
50592;BME280;36548;50.506;30.834;2023-05-03T02:55:38;100653.45;;;12.54;45.72
50592;BME280;36548;50.506;30.834;2023-05-03T02:56:47;100661.59;;;12.40;45.82
50592;BME280;36548;50.506;30.834;2023-05-03T02:57:56;100652.71;;;12.52;45.75
50592;BME280;36548;50.506;30.834;2023-05-03T02:59:05;100660.93;;;12.64;45.52
50592;BME280;36548;50.506;30.834;2023-05-03T03:00:15;100653.41;;;12.69;45.28
50592;BME280;36548;50.506;30.834;2023-05-03T03:01:32;100647.60;;;12.75;45.23
50592;BME280;36548;50.506;30.834;2023-05-03T03:02:42;100660.72;;;12.67;45.16
50592;BME280;36548;50.506;30.834;2023-05-03T03:03:52;100657.20;;;12.79;45.22
50592;BME280;36548;50.506;30.834;2023-05-03T03:05:08;100642.28;;;13.01;44.96
50592;BME280;36548;50.506;30.834;2023-05-03T03:06:20;100653.55;;;12.80;44.99
50592;BME280;36548;50.506;30.834;2023-05-03T03:07:38;100646.23;;;12.95;44.93
50592;BME280;36548;50.506;30.834;2023-05-03T03:08:48;100648.51;;;12.88;44.90
50592;BME280;36548;50.506;30.834;2023-05-03T03:10:05;100648.64;;;13.12;44.96
50592;BME280;36548;50.506;30.834;2023-05-03T03:11:14;100654.48;;;13.06;44.50
50592;BME280;36548;50.506;30.834;2023-05-03T03:12:25;100655.44;;;13.18;44.46
50592;BME280;36548;50.506;30.834;2023-05-03T03:13:42;100646.64;;;13.42;44.38
50592;BME280;36548;50.506;30.834;2023-05-03T03:14:52;100652.81;;;13.44;44.33
50592;BME280;36548;50.506;30.834;2023-05-03T03:16:27;100640.37;;;13.67;43.76
50592;BME280;36548;50.506;30.834;2023-05-03T03:17:36;100645.03;;;13.65;43.60
50592;BME280;36548;50.506;30.834;2023-05-03T03:18:53;100645.09;;;13.89;43.54
50592;BME280;36548;50.506;30.834;2023-05-03T03:20:01;100653.07;;;13.91;43.45
50592;BME280;36548;50.506;30.834;2023-05-03T03:21:14;100651.10;;;14.06;43.30
50592;BME280;36548;50.506;30.834;2023-05-03T03:22:23;100649.36;;;14.18;42.67
50592;BME280;36548;50.506;30.834;2023-05-03T03:23:36;100646.48;;;14.32;42.54
50592;BME280;36548;50.506;30.834;2023-05-03T03:24:52;100648.22;;;14.57;42.38
50592;BME280;36548;50.506;30.834;2023-05-03T03:26:02;100651.48;;;14.62;42.27
50592;BME280;36548;50.506;30.834;2023-05-03T03:27:17;100643.00;;;14.91;41.46
50592;BME280;36548;50.506;30.834;2023-05-03T03:28:26;100652.94;;;14.91;41.16
50592;BME280;36548;50.506;30.834;2023-05-03T03:29:36;100650.38;;;15.00;40.79
50592;BME280;36548;50.506;30.834;2023-05-03T03:30:52;100648.36;;;15.27;40.91
50592;BME280;36548;50.506;30.834;2023-05-03T03:32:04;100651.45;;;15.33;40.62
50592;BME280;36548;50.506;30.834;2023-05-03T03:33:19;100646.69;;;15.48;39.80
50592;BME280;36548;50.506;30.834;2023-05-03T03:34:31;100655.30;;;15.42;40.08
50592;BME280;36548;50.506;30.834;2023-05-03T03:35:42;100658.36;;;15.49;40.13
50592;BME280;36548;50.506;30.834;2023-05-03T03:37:16;100644.50;;;15.65;39.74
50592;BME280;36548;50.506;30.834;2023-05-03T03:38:25;100652.36;;;15.57;39.93
50592;BME280;36548;50.506;30.834;2023-05-03T03:39:40;100643.02;;;15.72;39.81
50592;BME280;36548;50.506;30.834;2023-05-03T03:40:50;100657.77;;;15.68;39.78
50592;BME280;36548;50.506;30.834;2023-05-03T03:42:07;100647.35;;;15.86;39.80
50592;BME280;36548;50.506;30.834;2023-05-03T03:43:16;100651.29;;;15.82;39.54
50592;BME280;36548;50.506;30.834;2023-05-03T03:44:31;100646.48;;;15.97;39.42
50592;BME280;36548;50.506;30.834;2023-05-03T03:45:41;100650.56;;;15.91;39.33
50592;BME280;36548;50.506;30.834;2023-05-03T03:46:58;100655.45;;;16.09;39.19
50592;BME280;36548;50.506;30.834;2023-05-03T03:48:07;100657.91;;;16.00;38.96
50592;BME280;36548;50.506;30.834;2023-05-03T03:49:16;100656.22;;;15.99;39.18
50592;BME280;36548;50.506;30.834;2023-05-03T03:50:32;100651.17;;;16.06;39.01
50592;BME280;36548;50.506;30.834;2023-05-03T03:51:43;100647.98;;;15.90;39.04
50592;BME280;36548;50.506;30.834;2023-05-03T03:52:59;100655.59;;;15.96;39.09
50592;BME280;36548;50.506;30.834;2023-05-03T03:54:09;100649.69;;;15.79;39.22
50592;BME280;36548;50.506;30.834;2023-05-03T03:55:21;100652.61;;;15.76;39.49
50592;BME280;36548;50.506;30.834;2023-05-03T03:56:37;100657.08;;;15.89;39.50
50592;BME280;36548;50.506;30.834;2023-05-03T03:57:46;100661.58;;;15.77;39.51
50592;BME280;36548;50.506;30.834;2023-05-03T03:58:56;100653.37;;;15.78;39.64
50592;BME280;36548;50.506;30.834;2023-05-03T04:00:12;100660.63;;;15.89;39.61
50592;BME280;36548;50.506;30.834;2023-05-03T04:01:24;100659.63;;;15.79;39.66
50592;BME280;36548;50.506;30.834;2023-05-03T04:02:40;100652.38;;;15.91;39.87
50592;BME280;36548;50.506;30.834;2023-05-03T04:03:52;100658.30;;;15.84;39.64
50592;BME280;36548;50.506;30.834;2023-05-03T04:05:08;100656.69;;;15.93;39.62
50592;BME280;36548;50.506;30.834;2023-05-03T04:06:18;100659.76;;;15.77;39.63
50592;BME280;36548;50.506;30.834;2023-05-03T04:07:33;100652.64;;;15.88;39.90
50592;BME280;36548;50.506;30.834;2023-05-03T04:08:43;100659.76;;;15.77;40.07
50592;BME280;36548;50.506;30.834;2023-05-03T04:09:58;100654.37;;;15.89;40.09
50592;BME280;36548;50.506;30.834;2023-05-03T04:11:09;100662.72;;;15.74;39.81
50592;BME280;36548;50.506;30.834;2023-05-03T04:12:26;100661.14;;;15.83;39.92
50592;BME280;36548;50.506;30.834;2023-05-03T04:13:34;100658.53;;;15.70;39.84
50592;BME280;36548;50.506;30.834;2023-05-03T04:14:44;100661.33;;;15.68;39.88
50592;BME280;36548;50.506;30.834;2023-05-03T04:16:00;100659.91;;;15.87;39.96
50592;BME280;36548;50.506;30.834;2023-05-03T04:17:13;100666.81;;;15.80;39.95
50592;BME280;36548;50.506;30.834;2023-05-03T04:18:28;100655.72;;;15.94;39.75
50592;BME280;36548;50.506;30.834;2023-05-03T04:19:38;100660.02;;;15.74;39.40
50592;BME280;36548;50.506;30.834;2023-05-03T04:20:53;100658.69;;;15.80;39.65
50592;BME280;36548;50.506;30.834;2023-05-03T04:22:03;100660.61;;;15.78;39.79
50592;BME280;36548;50.506;30.834;2023-05-03T04:23:19;100661.39;;;15.91;39.72
50592;BME280;36548;50.506;30.834;2023-05-03T04:24:28;100654.63;;;15.85;39.88
50592;BME280;36548;50.506;30.834;2023-05-03T04:25:47;100653.02;;;15.94;39.61
50592;BME280;36548;50.506;30.834;2023-05-03T04:26:57;100659.53;;;15.80;39.70
50592;BME280;36548;50.506;30.834;2023-05-03T04:28:12;100652.16;;;15.94;39.85
50592;BME280;36548;50.506;30.834;2023-05-03T04:29:25;100660.04;;;15.85;40.06
50592;BME280;36548;50.506;30.834;2023-05-03T04:30:41;100655.58;;;16.07;39.96
50592;BME280;36548;50.506;30.834;2023-05-03T04:31:55;100652.88;;;15.96;39.90
50592;BME280;36548;50.506;30.834;2023-05-03T04:33:05;100663.00;;;15.82;39.52
50592;BME280;36548;50.506;30.834;2023-05-03T04:34:21;100658.80;;;16.01;39.45
50592;BME280;36548;50.506;30.834;2023-05-03T04:35:32;100662.61;;;15.98;39.62
50592;BME280;36548;50.506;30.834;2023-05-03T04:36:44;100662.84;;;16.07;39.75
50592;BME280;36548;50.506;30.834;2023-05-03T04:38:01;100662.94;;;16.28;39.39
50592;BME280;36548;50.506;30.834;2023-05-03T04:39:11;100665.67;;;16.16;38.82
50592;BME280;36548;50.506;30.834;2023-05-03T04:40:28;100665.17;;;16.11;39.10
50592;BME280;36548;50.506;30.834;2023-05-03T04:41:41;100667.52;;;16.05;39.20
50592;BME280;36548;50.506;30.834;2023-05-03T04:42:52;100673.80;;;16.16;39.16
50592;BME280;36548;50.506;30.834;2023-05-03T04:44:09;100659.97;;;16.42;39.05
50592;BME280;36548;50.506;30.834;2023-05-03T04:45:20;100664.64;;;16.40;38.67
50592;BME280;36548;50.506;30.834;2023-05-03T04:46:30;100666.07;;;16.56;38.82
50592;BME280;36548;50.506;30.834;2023-05-03T04:47:45;100660.69;;;16.77;38.42
50592;BME280;36548;50.506;30.834;2023-05-03T04:48:56;100666.25;;;16.75;38.16
50592;BME280;36548;50.506;30.834;2023-05-03T04:50:11;100665.19;;;16.99;38.17
50592;BME280;36548;50.506;30.834;2023-05-03T04:51:22;100662.17;;;16.92;37.76
50592;BME280;36548;50.506;30.834;2023-05-03T04:52:38;100660.79;;;17.19;37.91
50592;BME280;36548;50.506;30.834;2023-05-03T04:53:49;100663.23;;;17.22;37.69
50592;BME280;36548;50.506;30.834;2023-05-03T04:55:07;100662.23;;;17.44;37.25
50592;BME280;36548;50.506;30.834;2023-05-03T04:56:17;100665.02;;;17.33;37.11
50592;BME280;36548;50.506;30.834;2023-05-03T04:57:34;100662.89;;;17.58;37.44
50592;BME280;36548;50.506;30.834;2023-05-03T04:58:43;100664.59;;;17.59;37.07
50592;BME280;36548;50.506;30.834;2023-05-03T05:00:00;100655.16;;;17.84;37.27
50592;BME280;36548;50.506;30.834;2023-05-03T05:01:09;100665.74;;;17.87;37.00
50592;BME280;36548;50.506;30.834;2023-05-03T05:02:19;100666.27;;;18.02;36.55
50592;BME280;36548;50.506;30.834;2023-05-03T05:03:35;100668.05;;;18.32;36.08
50592;BME280;36548;50.506;30.834;2023-05-03T05:04:47;100669.05;;;18.21;35.44
50592;BME280;36548;50.506;30.834;2023-05-03T05:06:03;100663.38;;;18.44;35.81
50592;BME280;36548;50.506;30.834;2023-05-03T05:07:15;100670.39;;;18.47;35.17
50592;BME280;36548;50.506;30.834;2023-05-03T05:08:32;100668.28;;;18.60;35.35
50592;BME280;36548;50.506;30.834;2023-05-03T05:09:41;100666.95;;;18.54;35.05
50592;BME280;36548;50.506;30.834;2023-05-03T05:11:00;100666.86;;;18.76;35.28
50592;BME280;36548;50.506;30.834;2023-05-03T05:12:12;100679.42;;;18.77;35.19
50592;BME280;36548;50.506;30.834;2023-05-03T05:13:29;100675.05;;;19.05;34.74
50592;BME280;36548;50.506;30.834;2023-05-03T05:14:39;100680.48;;;19.05;34.70
50592;BME280;36548;50.506;30.834;2023-05-03T05:15:55;100677.88;;;19.33;34.67
50592;BME280;36548;50.506;30.834;2023-05-03T05:17:04;100675.31;;;19.31;34.06
50592;BME280;36548;50.506;30.834;2023-05-03T05:18:14;100685.03;;;19.44;34.19
50592;BME280;36548;50.506;30.834;2023-05-03T05:19:30;100676.23;;;19.59;33.96
50592;BME280;36548;50.506;30.834;2023-05-03T05:20:40;100676.56;;;19.47;33.44
50592;BME280;36548;50.506;30.834;2023-05-03T05:22:01;100666.05;;;19.71;33.92
50592;BME280;36548;50.506;30.834;2023-05-03T05:23:16;100676.36;;;19.68;33.43
50592;BME280;36548;50.506;30.834;2023-05-03T05:24:31;100671.56;;;19.99;33.49
50592;BME280;36548;50.506;30.834;2023-05-03T05:25:41;100673.82;;;20.04;32.88
50592;BME280;36548;50.506;30.834;2023-05-03T05:26:58;100682.90;;;20.22;32.96
50592;BME280;36548;50.506;30.834;2023-05-03T05:28:08;100676.75;;;20.20;32.99
50592;BME280;36548;50.506;30.834;2023-05-03T05:29:31;100675.64;;;20.41;32.66
50592;BME280;36548;50.506;30.834;2023-05-03T05:30:40;100686.77;;;20.30;32.55
50592;BME280;36548;50.506;30.834;2023-05-03T05:31:55;100676.55;;;20.32;32.67
50592;BME280;36548;50.506;30.834;2023-05-03T05:33:05;100680.22;;;20.40;32.31
50592;BME280;36548;50.506;30.834;2023-05-03T05:34:20;100673.95;;;20.58;32.39
50592;BME280;36548;50.506;30.834;2023-05-03T05:35:31;100669.89;;;20.62;32.35
50592;BME280;36548;50.506;30.834;2023-05-03T05:36:46;100677.73;;;20.93;31.90
50592;BME280;36548;50.506;30.834;2023-05-03T05:37:56;100669.55;;;20.93;31.60
50592;BME280;36548;50.506;30.834;2023-05-03T05:39:13;100665.40;;;21.07;31.08
50592;BME280;36548;50.506;30.834;2023-05-03T05:40:23;100671.50;;;21.01;31.05
50592;BME280;36548;50.506;30.834;2023-05-03T05:41:38;100670.15;;;21.23;31.40
50592;BME280;36548;50.506;30.834;2023-05-03T05:42:48;100660.95;;;21.24;31.60
50592;BME280;36548;50.506;30.834;2023-05-03T05:44:03;100658.13;;;21.60;30.84
50592;BME280;36548;50.506;30.834;2023-05-03T05:45:14;100666.88;;;21.63;30.18
50592;BME280;36548;50.506;30.834;2023-05-03T05:46:30;100657.43;;;21.84;29.93
50592;BME280;36548;50.506;30.834;2023-05-03T05:47:39;100657.88;;;21.71;29.53
50592;BME280;36548;50.506;30.834;2023-05-03T05:48:54;100661.63;;;21.70;29.26
50592;BME280;36548;50.506;30.834;2023-05-03T05:50:06;100658.13;;;21.60;29.24
50592;BME280;36548;50.506;30.834;2023-05-03T05:51:18;100650.70;;;21.70;29.79
50592;BME280;36548;50.506;30.834;2023-05-03T05:52:34;100647.42;;;22.01;29.42
50592;BME280;36548;50.506;30.834;2023-05-03T05:53:45;100651.88;;;22.02;29.24
50592;BME280;36548;50.506;30.834;2023-05-03T05:55:01;100645.09;;;22.14;29.17
50592;BME280;36548;50.506;30.834;2023-05-03T05:56:10;100655.36;;;22.21;29.27
50592;BME280;36548;50.506;30.834;2023-05-03T05:57:20;100660.75;;;22.39;28.94
50592;BME280;36548;50.506;30.834;2023-05-03T05:58:35;100652.78;;;22.62;28.20
50592;BME280;36548;50.506;30.834;2023-05-03T05:59:47;100647.48;;;22.60;28.17
50592;BME280;36548;50.506;30.834;2023-05-03T06:01:05;100649.05;;;22.71;28.13
50592;BME280;36548;50.506;30.834;2023-05-03T06:02:15;100643.21;;;22.66;27.95
50592;BME280;36548;50.506;30.834;2023-05-03T06:03:32;100648.89;;;22.89;28.08
50592;BME280;36548;50.506;30.834;2023-05-03T06:04:44;100647.67;;;22.92;28.07
50592;BME280;36548;50.506;30.834;2023-05-03T06:06:00;100641.00;;;23.11;27.37
50592;BME280;36548;50.506;30.834;2023-05-03T06:07:11;100646.66;;;23.09;27.54
50592;BME280;36548;50.506;30.834;2023-05-03T06:08:28;100637.80;;;23.15;26.56
50592;BME280;36548;50.506;30.834;2023-05-03T06:09:39;100651.11;;;23.02;26.76
50592;BME280;36548;50.506;30.834;2023-05-03T06:10:55;100644.30;;;23.14;26.69
50592;BME280;36548;50.506;30.834;2023-05-03T06:12:07;100627.84;;;23.06;26.64
50592;BME280;36548;50.506;30.834;2023-05-03T06:13:19;100649.39;;;23.01;26.46
50592;BME280;36548;50.506;30.834;2023-05-03T06:14:29;100643.41;;;22.89;26.31
50592;BME280;36548;50.506;30.834;2023-05-03T06:15:45;100632.15;;;23.17;26.73
50592;BME280;36548;50.506;30.834;2023-05-03T06:16:54;100645.63;;;23.02;26.31
50592;BME280;36548;50.506;30.834;2023-05-03T06:18:09;100640.85;;;23.29;26.87
50592;BME280;36548;50.506;30.834;2023-05-03T06:19:19;100644.29;;;23.31;26.10
50592;BME280;36548;50.506;30.834;2023-05-03T06:20:33;100633.81;;;23.43;26.21
50592;BME280;36548;50.506;30.834;2023-05-03T06:21:43;100637.62;;;23.34;26.28
50592;BME280;36548;50.506;30.834;2023-05-03T06:23:19;100632.44;;;23.47;26.58
50592;BME280;36548;50.506;30.834;2023-05-03T06:24:31;100637.57;;;23.42;26.76
50592;BME280;36548;50.506;30.834;2023-05-03T06:25:40;100629.20;;;23.52;26.63
50592;BME280;36548;50.506;30.834;2023-05-03T06:26:56;100624.16;;;23.72;25.93
50592;BME280;36548;50.506;30.834;2023-05-03T06:28:07;100627.30;;;23.52;25.77
50592;BME280;36548;50.506;30.834;2023-05-03T06:29:24;100625.08;;;23.56;25.68
50592;BME280;36548;50.506;30.834;2023-05-03T06:30:34;100624.89;;;23.57;25.52